Time,TemperatureF,DewpointF,PressureIn,WindDirection,WindDirectionDegrees,WindSpeedMPH,WindSpeedGustMPH,Humidity,HourlyPrecipIn,Conditions,Clouds,dailyrainin,SoftwareType,DateUTC
2013-02-14 00:00:00,34.4,31.5,29.62,WNW,297,10.0,13.0,89,0.00,,,0.00,Wunderground v.1.15,2013-02-14 06:00:00,
2013-02-14 00:04:00,34.5,31.3,29.62,WNW,298,11.0,13.0,88,0.00,,,0.00,Wunderground v.1.15,2013-02-14 06:04:00,
2013-02-14 00:06:00,34.5,31.3,29.63,WNW,295,11.0,13.0,88,0.00,,,0.00,Wunderground v.1.15,2013-02-14 06:06:00,
2013-02-14 00:13:00,34.3,31.4,29.63,WNW,294,10.0,14.0,89,0.00,,,0.00,Wunderground v.1.15,2013-02-14 06:13:00,
2013-02-14 00:20:00,34.2,31.6,29.63,WNW,297,10.0,10.0,90,0.00,,,0.00,Wunderground v.1.15,2013-02-14 06:20:00,
2013-02-14 00:22:00,34.2,31.6,29.63,WNW,293,10.0,10.0,90,0.00,,,0.00,Wunderground v.1.15,2013-02-14 06:22:00,
2013-02-14 00:26:00,34.1,31.5,29.63,WNW,297,10.0,10.0,90,0.00,,,0.00,Wunderground v.1.15,2013-02-14 06:26:00,
2013-02-14 00:28:00,34.1,31.5,29.63,WNW,297,10.0,13.0,90,0.00,,,0.00,Wunderground v.1.15,2013-02-14 06:28:00,
2013-02-14 00:34:00,34.1,31.5,29.64,NW,319,10.0,12.0,90,0.00,,,0.00,Wunderground v.1.15,2013-02-14 06:34:00,
2013-02-14 00:35:00,34.2,31.6,29.64,NW,304,10.0,12.0,90,0.00,,,0.00,Wunderground v.1.15,2013-02-14 06:35:00,
2013-02-14 00:40:00,34.2,31.6,29.64,NW,316,10.0,10.0,90,0.00,,,0.00,Wunderground v.1.15,2013-02-14 06:40:00,
2013-02-14 00:46:00,34.3,31.7,29.64,West,263,10.0,11.0,90,0.00,,,0.00,Wunderground v.1.15,2013-02-14 06:46:00,
2013-02-14 00:48:00,34.3,31.7,29.64,WNW,301,10.0,13.0,90,0.00,,,0.00,Wunderground v.1.15,2013-02-14 06:48:00,
2013-02-14 00:52:00,34.4,31.2,29.64,WNW,297,11.0,18.0,88,0.00,,,0.00,Wunderground v.1.15,2013-02-14 06:52:00,
2013-02-14 00:56:00,34.5,31.3,29.64,NW,307,13.0,18.0,88,0.00,,,0.00,Wunderground v.1.15,2013-02-14 06:56:00,
2013-02-14 00:57:00,34.6,31.1,29.64,WNW,297,15.0,18.0,87,0.00,,,0.00,Wunderground v.1.15,2013-02-14 06:57:00,
2013-02-14 01:02:00,34.6,31.1,29.65,NW,314,16.0,18.0,87,0.00,,,0.00,Wunderground v.1.15,2013-02-14 07:02:00,
2013-02-14 01:08:00,34.4,31.2,29.65,NW,307,15.0,18.0,88,0.00,,,0.00,Wunderground v.1.15,2013-02-14 07:08:00,
2013-02-14 01:14:00,34.1,31.2,29.65,NNW,334,14.0,18.0,89,0.00,,,0.00,Wunderground v.1.15,2013-02-14 07:14:00,
2013-02-14 01:17:00,33.7,31.1,29.66,NNW,327,15.0,18.0,90,0.00,,,0.00,Wunderground v.1.15,2013-02-14 07:17:00,
2013-02-14 01:19:00,33.5,30.6,29.66,NNW,342,16.0,18.0,89,0.00,,,0.00,Wunderground v.1.15,2013-02-14 07:19:00,
2013-02-14 01:24:00,33.0,29.8,29.66,WNW,290,16.0,21.0,88,0.00,,,0.00,Wunderground v.1.15,2013-02-14 07:24:00,
2013-02-14 01:26:00,33.0,29.8,29.66,NW,316,17.0,22.0,88,0.00,,,0.00,Wunderground v.1.15,2013-02-14 07:26:00,
2013-02-14 01:32:00,32.7,29.5,29.66,NNW,332,16.0,22.0,88,0.00,,,0.00,Wunderground v.1.15,2013-02-14 07:32:00,
2013-02-14 01:36:00,32.8,29.9,29.66,NW,324,16.0,22.0,89,0.00,,,0.00,Wunderground v.1.15,2013-02-14 07:36:00,
2013-02-14 01:39:00,32.7,29.8,29.67,NW,312,16.0,16.0,89,0.00,,,0.00,Wunderground v.1.15,2013-02-14 07:39:00,
2013-02-14 01:41:00,32.5,29.6,29.67,WNW,297,16.0,23.0,89,0.00,,,0.00,Wunderground v.1.15,2013-02-14 07:41:00,
2013-02-14 01:46:00,32.4,29.5,29.67,NW,321,17.0,23.0,89,0.00,,,0.00,Wunderground v.1.15,2013-02-14 07:46:00,
2013-02-14 01:52:00,32.2,29.3,29.67,NW,321,16.0,18.0,89,0.00,,,0.00,Wunderground v.1.15,2013-02-14 07:52:00,
2013-02-14 01:58:00,32.1,29.2,29.68,NW,318,17.0,20.0,89,0.00,,,0.00,Wunderground v.1.15,2013-02-14 07:58:00,
2013-02-14 02:03:00,32.1,29.2,29.68,NNW,334,17.0,19.0,89,0.00,,,0.00,Wunderground v.1.15,2013-02-14 08:03:00,
2013-02-14 02:06:00,32.1,29.5,29.68,NW,304,17.0,19.0,90,0.00,,,0.00,Wunderground v.1.15,2013-02-14 08:06:00,
2013-02-14 02:08:00,32.1,29.5,29.68,NW,314,17.0,19.0,90,0.00,,,0.00,Wunderground v.1.15,2013-02-14 08:08:00,
2013-02-14 02:10:00,32.1,29.5,29.68,NNW,332,17.0,17.0,90,0.00,,,0.00,Wunderground v.1.15,2013-02-14 08:10:00,
2013-02-14 02:12:00,32.1,29.5,29.68,NW,308,16.0,18.0,90,0.00,,,0.00,Wunderground v.1.15,2013-02-14 08:12:00,
2013-02-14 02:14:00,32.1,29.5,29.68,WNW,297,15.0,18.0,90,0.00,,,0.00,Wunderground v.1.15,2013-02-14 08:14:00,
2013-02-14 02:18:00,32.1,29.5,29.68,NNW,346,14.0,18.0,90,0.00,,,0.00,Wunderground v.1.15,2013-02-14 08:18:00,
2013-02-14 02:21:00,32.1,29.5,29.69,NW,316,14.0,18.0,90,0.00,,,0.00,Wunderground v.1.15,2013-02-14 08:21:00,
2013-02-14 02:24:00,32.2,29.6,29.69,NW,322,14.0,18.0,90,0.00,,,0.00,Wunderground v.1.15,2013-02-14 08:24:00,
2013-02-14 02:28:00,32.1,29.5,29.69,NW,311,14.0,18.0,90,0.00,,,0.00,Wunderground v.1.15,2013-02-14 08:28:00,
2013-02-14 02:34:00,32.1,29.5,29.69,WNW,301,13.0,18.0,90,0.00,,,0.00,Wunderground v.1.15,2013-02-14 08:34:00,
2013-02-14 02:36:00,32.1,29.5,29.70,NW,311,13.0,18.0,90,0.00,,,0.00,Wunderground v.1.15,2013-02-14 08:36:00,
2013-02-14 02:38:00,32.0,29.4,29.70,WNW,295,13.0,18.0,90,0.00,,,0.00,Wunderground v.1.15,2013-02-14 08:38:00,
2013-02-14 02:42:00,31.9,29.6,29.70,NW,305,13.0,18.0,91,0.00,,,0.00,Wunderground v.1.15,2013-02-14 08:42:00,
2013-02-14 02:43:00,31.9,29.6,29.70,NW,314,14.0,19.0,91,0.00,,,0.00,Wunderground v.1.15,2013-02-14 08:43:00,
2013-02-14 02:45:00,31.9,29.6,29.70,NW,307,14.0,19.0,91,0.00,,,0.00,Wunderground v.1.15,2013-02-14 08:45:00,
2013-02-14 02:50:00,31.8,29.5,29.71,NW,312,13.0,18.0,91,0.00,,,0.00,Wunderground v.1.15,2013-02-14 08:50:00,
2013-02-14 02:52:00,31.8,29.5,29.71,NW,317,13.0,18.0,91,0.00,,,0.00,Wunderground v.1.15,2013-02-14 08:52:00,
2013-02-14 02:58:00,31.8,29.5,29.71,NW,326,13.0,18.0,91,0.00,,,0.00,Wunderground v.1.15,2013-02-14 08:58:00,
2013-02-14 03:04:00,31.8,29.5,29.72,NNW,330,13.0,18.0,91,0.00,,,0.00,Wunderground v.1.15,2013-02-14 09:04:00,
2013-02-14 03:06:00,31.8,29.5,29.72,NW,325,13.0,18.0,91,0.00,,,0.00,Wunderground v.1.15,2013-02-14 09:06:00,
2013-02-14 03:10:00,31.6,29.3,29.72,NNW,333,13.0,19.0,91,0.00,,,0.00,Wunderground v.1.15,2013-02-14 09:10:00,
2013-02-14 03:16:00,31.4,29.1,29.72,NW,321,14.0,19.0,91,0.00,,,0.00,Wunderground v.1.15,2013-02-14 09:16:00,
2013-02-14 03:18:00,31.3,29.0,29.72,NW,322,15.0,20.0,91,0.00,,,0.00,Wunderground v.1.15,2013-02-14 09:18:00,
2013-02-14 03:20:00,31.2,28.9,29.72,NW,320,15.0,18.0,91,0.00,,,0.00,Wunderground v.1.15,2013-02-14 09:20:00,
2013-02-14 03:24:00,31.0,28.9,29.72,NNW,339,15.0,18.0,92,0.00,,,0.00,Wunderground v.1.15,2013-02-14 09:24:00,
2013-02-14 03:25:00,31.0,28.9,29.72,NNW,344,15.0,18.0,92,0.00,,,0.00,Wunderground v.1.15,2013-02-14 09:25:00,
2013-02-14 03:29:00,31.0,28.9,29.72,NW,312,15.0,15.0,92,0.00,,,0.00,Wunderground v.1.15,2013-02-14 09:29:00,
2013-02-14 03:34:00,31.0,28.9,29.72,NW,319,14.0,18.0,92,0.00,,,0.00,Wunderground v.1.15,2013-02-14 09:34:00,
2013-02-14 03:36:00,31.0,28.9,29.72,NW,323,13.0,18.0,92,0.00,,,0.00,Wunderground v.1.15,2013-02-14 09:36:00,
2013-02-14 03:40:00,31.1,29.0,29.73,NW,308,13.0,18.0,92,0.00,,,0.00,Wunderground v.1.15,2013-02-14 09:40:00,
2013-02-14 03:42:00,31.1,29.0,29.73,WNW,295,13.0,18.0,92,0.00,,,0.00,Wunderground v.1.15,2013-02-14 09:42:00,
2013-02-14 03:46:00,31.0,28.7,29.73,NNW,329,14.0,18.0,91,0.00,,,0.00,Wunderground v.1.15,2013-02-14 09:46:00,
2013-02-14 03:47:00,31.0,28.7,29.73,NW,321,14.0,18.0,91,0.00,,,0.00,Wunderground v.1.15,2013-02-14 09:47:00,
2013-02-14 03:49:00,31.1,28.8,29.73,NNW,333,14.0,14.0,91,0.00,,,0.00,Wunderground v.1.15,2013-02-14 09:49:00,
2013-02-14 03:52:00,31.2,28.9,29.73,NNW,330,14.0,18.0,91,0.00,,,0.00,Wunderground v.1.15,2013-02-14 09:52:00,
2013-02-14 03:54:00,31.2,28.9,29.73,NW,315,13.0,18.0,91,0.00,,,0.00,Wunderground v.1.15,2013-02-14 09:54:00,
2013-02-14 03:56:00,31.2,28.9,29.73,NNW,345,13.0,18.0,91,0.00,,,0.00,Wunderground v.1.15,2013-02-14 09:56:00,
2013-02-14 03:58:00,31.2,28.9,29.73,NW,315,13.0,18.0,91,0.00,,,0.00,Wunderground v.1.15,2013-02-14 09:58:00,
2013-02-14 04:00:00,31.3,29.2,29.74,NNW,332,13.0,18.0,92,0.00,,,0.00,Wunderground v.1.15,2013-02-14 10:00:00,
2013-02-14 04:04:00,31.2,29.1,29.73,NNW,327,13.0,18.0,92,0.00,,,0.00,Wunderground v.1.15,2013-02-14 10:04:00,
2013-02-14 04:06:00,31.2,29.1,29.74,NW,314,13.0,18.0,92,0.00,,,0.00,Wunderground v.1.15,2013-02-14 10:06:00,
2013-02-14 04:08:00,31.2,28.9,29.74,NW,316,14.0,18.0,91,0.00,,,0.00,Wunderground v.1.15,2013-02-14 10:08:00,
2013-02-14 04:12:00,31.1,28.8,29.74,NW,310,14.0,18.0,91,0.00,,,0.00,Wunderground v.1.15,2013-02-14 10:12:00,
2013-02-14 04:16:00,31.1,29.0,29.74,NW,321,14.0,18.0,92,0.00,,,0.00,Wunderground v.1.15,2013-02-14 10:16:00,
2013-02-14 04:18:00,31.2,29.1,29.74,NW,320,14.0,18.0,92,0.00,,,0.00,Wunderground v.1.15,2013-02-14 10:18:00,
2013-02-14 04:22:00,31.2,29.1,29.74,WNW,297,12.0,18.0,92,0.00,,,0.00,Wunderground v.1.15,2013-02-14 10:22:00,
2013-02-14 04:24:00,31.2,29.1,29.74,NW,304,12.0,18.0,92,0.00,,,0.00,Wunderground v.1.15,2013-02-14 10:24:00,
2013-02-14 04:26:00,31.2,29.1,29.75,WNW,291,11.0,18.0,92,0.00,,,0.00,Wunderground v.1.15,2013-02-14 10:26:00,
2013-02-14 04:30:00,31.2,29.1,29.75,WNW,297,10.0,18.0,92,0.00,,,0.00,Wunderground v.1.15,2013-02-14 10:30:00,
2013-02-14 04:32:00,31.2,29.1,29.75,NW,312,11.0,18.0,92,0.00,,,0.00,Wunderground v.1.15,2013-02-14 10:32:00,
2013-02-14 04:36:00,31.1,29.0,29.75,WNW,290,11.0,18.0,92,0.00,,,0.00,Wunderground v.1.15,2013-02-14 10:36:00,
2013-02-14 04:42:00,31.1,29.0,29.75,West,281,12.0,18.0,92,0.00,,,0.00,Wunderground v.1.15,2013-02-14 10:42:00,
2013-02-14 04:46:00,31.1,28.8,29.75,NW,312,11.0,18.0,91,0.00,,,0.00,Wunderground v.1.15,2013-02-14 10:46:00,
2013-02-14 04:52:00,31.0,28.7,29.76,NW,308,11.0,18.0,91,0.00,,,0.00,Wunderground v.1.15,2013-02-14 10:52:00,
2013-02-14 04:54:00,31.0,28.7,29.76,WNW,297,11.0,18.0,91,0.00,,,0.00,Wunderground v.1.15,2013-02-14 10:54:00,
2013-02-14 04:56:00,31.0,28.7,29.76,NW,304,11.0,18.0,91,0.00,,,0.00,Wunderground v.1.15,2013-02-14 10:56:00,
2013-02-14 04:58:00,31.0,28.9,29.76,NW,306,10.0,18.0,92,0.00,,,0.00,Wunderground v.1.15,2013-02-14 10:58:00,
2013-02-14 05:02:00,30.9,28.9,29.77,NW,318,10.0,18.0,92,0.00,,,0.00,Wunderground v.1.15,2013-02-14 11:02:00,
2013-02-14 05:04:00,30.9,28.6,29.76,WNW,302,11.0,18.0,91,0.00,,,0.00,Wunderground v.1.15,2013-02-14 11:04:00,
2013-02-14 05:06:00,30.9,28.6,29.77,NW,314,11.0,18.0,91,0.00,,,0.00,Wunderground v.1.15,2013-02-14 11:06:00,
2013-02-14 05:08:00,30.9,28.6,29.77,WNW,301,12.0,18.0,91,0.00,,,0.00,Wunderground v.1.15,2013-02-14 11:08:00,
2013-02-14 05:10:00,30.9,28.6,29.77,NW,316,12.0,12.0,91,0.00,,,0.00,Wunderground v.1.15,2013-02-14 11:10:00,
2013-02-14 05:14:00,31.0,28.9,29.77,NW,312,12.0,18.0,92,0.00,,,0.00,Wunderground v.1.15,2013-02-14 11:14:00,
2013-02-14 05:16:00,31.0,28.9,29.76,NW,312,11.0,18.0,92,0.00,,,0.00,Wunderground v.1.15,2013-02-14 11:16:00,
2013-02-14 05:18:00,30.9,28.6,29.76,NW,316,11.0,18.0,91,0.00,,,0.00,Wunderground v.1.15,2013-02-14 11:18:00,
2013-02-14 05:22:00,31.0,28.7,29.77,NW,317,11.0,18.0,91,0.00,,,0.00,Wunderground v.1.15,2013-02-14 11:22:00,
2013-02-14 05:24:00,31.0,28.7,29.78,NW,316,12.0,18.0,91,0.00,,,0.00,Wunderground v.1.15,2013-02-14 11:24:00,
2013-02-14 05:26:00,31.0,28.7,29.78,NW,316,13.0,18.0,91,0.00,,,0.00,Wunderground v.1.15,2013-02-14 11:26:00,
2013-02-14 05:28:00,31.0,28.7,29.78,NW,314,13.0,18.0,91,0.00,,,0.00,Wunderground v.1.15,2013-02-14 11:28:00,
2013-02-14 05:32:00,31.0,28.7,29.78,NW,314,13.0,18.0,91,0.00,,,0.00,Wunderground v.1.15,2013-02-14 11:32:00,
2013-02-14 05:34:00,31.0,28.9,29.78,NW,322,12.0,18.0,92,0.00,,,0.00,Wunderground v.1.15,2013-02-14 11:34:00,
2013-02-14 05:38:00,30.9,28.9,29.78,NW,308,10.0,18.0,92,0.00,,,0.00,Wunderground v.1.15,2013-02-14 11:38:00,
2013-02-14 05:40:00,30.9,28.9,29.78,NNW,338,10.0,18.0,92,0.00,,,0.00,Wunderground v.1.15,2013-02-14 11:40:00,
2013-02-14 05:42:00,30.9,28.9,29.78,NW,316,9.0,18.0,92,0.00,,,0.00,Wunderground v.1.15,2013-02-14 11:42:00,
2013-02-14 05:46:00,30.8,28.8,29.78,NW,317,10.0,18.0,92,0.00,,,0.00,Wunderground v.1.15,2013-02-14 11:46:00,
2013-02-14 05:48:00,30.8,28.8,29.78,NW,318,10.0,18.0,92,0.00,,,0.00,Wunderground v.1.15,2013-02-14 11:48:00,
2013-02-14 05:50:00,30.8,28.8,29.78,NNW,332,11.0,11.0,92,0.00,,,0.00,Wunderground v.1.15,2013-02-14 11:50:00,
2013-02-14 05:52:00,30.8,28.8,29.78,NW,324,10.0,18.0,92,0.00,,,0.00,Wunderground v.1.15,2013-02-14 11:52:00,
2013-02-14 05:54:00,30.8,28.8,29.78,NW,322,10.0,18.0,92,0.00,,,0.00,Wunderground v.1.15,2013-02-14 11:54:00,
2013-02-14 05:58:00,30.8,28.8,29.79,NNW,332,11.0,18.0,92,0.00,,,0.00,Wunderground v.1.15,2013-02-14 11:58:00,
2013-02-14 06:00:00,30.8,28.8,29.79,NNW,336,11.0,11.0,92,0.00,,,0.00,Wunderground v.1.15,2013-02-14 12:00:00,
2013-02-14 06:02:00,30.7,28.7,29.79,NNW,328,11.0,12.0,92,0.00,,,0.00,Wunderground v.1.15,2013-02-14 12:02:00,
2013-02-14 06:04:00,30.7,28.7,29.79,NW,316,11.0,18.0,92,0.00,,,0.00,Wunderground v.1.15,2013-02-14 12:04:00,
2013-02-14 06:08:00,30.7,28.7,29.79,NW,309,10.0,18.0,92,0.00,,,0.00,Wunderground v.1.15,2013-02-14 12:08:00,
2013-02-14 06:10:00,30.7,28.7,29.79,NW,318,10.0,18.0,92,0.00,,,0.00,Wunderground v.1.15,2013-02-14 12:10:00,
2013-02-14 06:12:00,30.6,28.6,29.79,NW,317,10.0,18.0,92,0.00,,,0.00,Wunderground v.1.15,2013-02-14 12:12:00,
2013-02-14 06:16:00,30.6,28.6,29.79,WNW,300,10.0,18.0,92,0.00,,,0.00,Wunderground v.1.15,2013-02-14 12:16:00,
2013-02-14 06:19:00,30.5,28.5,29.80,WNW,302,9.0,9.0,92,0.00,,,0.00,Wunderground v.1.15,2013-02-14 12:19:00,
2013-02-14 06:22:00,30.5,28.5,29.80,NNW,328,9.0,10.0,92,0.00,,,0.00,Wunderground v.1.15,2013-02-14 12:22:00,
2013-02-14 06:24:00,30.4,28.4,29.80,NW,309,9.0,18.0,92,0.00,,,0.00,Wunderground v.1.15,2013-02-14 12:24:00,
2013-02-14 06:26:00,30.4,28.4,29.80,NW,312,9.0,18.0,92,0.00,,,0.00,Wunderground v.1.15,2013-02-14 12:26:00,
2013-02-14 06:30:00,30.3,28.3,29.80,WNW,290,9.0,18.0,92,0.00,,,0.00,Wunderground v.1.15,2013-02-14 12:30:00,
2013-02-14 06:32:00,30.3,28.3,29.80,NNW,333,10.0,18.0,92,0.00,,,0.00,Wunderground v.1.15,2013-02-14 12:32:00,
2013-02-14 06:34:00,30.3,28.3,29.80,NW,306,11.0,18.0,92,0.00,,,0.00,Wunderground v.1.15,2013-02-14 12:34:00,
2013-02-14 06:38:00,30.3,28.3,29.80,NW,321,11.0,18.0,92,0.00,,,0.00,Wunderground v.1.15,2013-02-14 12:38:00,
2013-02-14 06:40:00,30.2,28.2,29.80,WNW,288,11.0,18.0,92,0.00,,,0.00,Wunderground v.1.15,2013-02-14 12:40:00,
2013-02-14 06:42:00,30.2,28.2,29.80,NW,310,10.0,18.0,92,0.00,,,0.00,Wunderground v.1.15,2013-02-14 12:42:00,
2013-02-14 06:44:00,30.2,28.2,29.80,NW,312,10.0,18.0,92,0.00,,,0.00,Wunderground v.1.15,2013-02-14 12:44:00,
2013-02-14 06:48:00,30.2,28.2,29.80,NW,317,10.0,18.0,92,0.00,,,0.00,Wunderground v.1.15,2013-02-14 12:48:00,
2013-02-14 06:50:00,30.2,28.2,29.81,NW,314,10.0,18.0,92,0.00,,,0.00,Wunderground v.1.15,2013-02-14 12:50:00,
2013-02-14 06:52:00,30.2,28.2,29.81,NNW,328,11.0,18.0,92,0.00,,,0.00,Wunderground v.1.15,2013-02-14 12:52:00,
2013-02-14 06:54:00,30.2,28.2,29.81,NW,322,11.0,18.0,92,0.00,,,0.00,Wunderground v.1.15,2013-02-14 12:54:00,
2013-02-14 06:58:00,30.1,28.1,29.81,NW,322,11.0,18.0,92,0.00,,,0.00,Wunderground v.1.15,2013-02-14 12:58:00,
2013-02-14 07:00:00,30.1,28.1,29.81,NW,319,11.0,18.0,92,0.00,,,0.00,Wunderground v.1.15,2013-02-14 13:00:00,
2013-02-14 07:04:00,30.0,28.0,29.81,NW,318,12.0,18.0,92,0.00,,,0.00,Wunderground v.1.15,2013-02-14 13:04:00,
2013-02-14 07:06:00,30.0,28.0,29.81,NW,323,12.0,18.0,92,0.00,,,0.00,Wunderground v.1.15,2013-02-14 13:06:00,
2013-02-14 07:08:00,30.0,28.0,29.81,NW,317,12.0,18.0,92,0.00,,,0.00,Wunderground v.1.15,2013-02-14 13:08:00,
2013-02-14 07:10:00,30.0,28.0,29.81,NNW,334,12.0,12.0,92,0.00,,,0.00,Wunderground v.1.15,2013-02-14 13:10:00,
2013-02-14 07:14:00,30.0,28.0,29.81,North,11,12.0,18.0,92,0.00,,,0.00,Wunderground v.1.15,2013-02-14 13:14:00,
2013-02-14 07:16:00,30.0,28.0,29.82,NW,324,11.0,18.0,92,0.00,,,0.00,Wunderground v.1.15,2013-02-14 13:16:00,
2013-02-14 07:20:00,30.0,28.0,29.81,NW,323,10.0,18.0,92,0.00,,,0.00,Wunderground v.1.15,2013-02-14 13:20:00,
2013-02-14 07:26:00,30.0,28.0,29.81,NNW,342,9.0,18.0,92,0.00,,,0.00,Wunderground v.1.15,2013-02-14 13:26:00,
2013-02-14 07:28:00,30.0,28.0,29.81,NW,312,8.0,18.0,92,0.00,,,0.00,Wunderground v.1.15,2013-02-14 13:28:00,
2013-02-14 07:30:00,30.0,28.0,29.81,NNW,333,8.0,18.0,92,0.00,,,0.00,Wunderground v.1.15,2013-02-14 13:30:00,
2013-02-14 07:34:00,29.8,27.8,29.81,NW,319,8.0,18.0,92,0.00,,,0.00,Wunderground v.1.15,2013-02-14 13:34:00,
2013-02-14 07:36:00,29.7,27.7,29.81,NW,321,8.0,18.0,92,0.00,,,0.00,Wunderground v.1.15,2013-02-14 13:36:00,
2013-02-14 07:40:00,29.6,27.3,29.81,NW,314,9.0,18.0,91,0.00,,,0.00,Wunderground v.1.15,2013-02-14 13:40:00,
2013-02-14 07:42:00,29.5,27.5,29.82,WNW,300,9.0,18.0,92,0.00,,,0.00,Wunderground v.1.15,2013-02-14 13:42:00,
2013-02-14 07:46:00,29.4,27.4,29.82,NW,322,9.0,18.0,92,0.00,,,0.00,Wunderground v.1.15,2013-02-14 13:46:00,
2013-02-14 07:48:00,29.4,27.4,29.82,NW,311,9.0,18.0,92,0.00,,,0.00,Wunderground v.1.15,2013-02-14 13:48:00,
2013-02-14 07:50:00,29.4,27.4,29.82,NW,312,8.0,18.0,92,0.00,,,0.00,Wunderground v.1.15,2013-02-14 13:50:00,
2013-02-14 07:52:00,29.4,27.4,29.82,NNW,333,8.0,18.0,92,0.00,,,0.00,Wunderground v.1.15,2013-02-14 13:52:00,
2013-02-14 07:54:00,29.4,27.4,29.82,NW,319,7.0,18.0,92,0.00,,,0.00,Wunderground v.1.15,2013-02-14 13:54:00,
2013-02-14 07:58:00,29.4,27.4,29.82,NNW,342,7.0,18.0,92,0.00,,,0.00,Wunderground v.1.15,2013-02-14 13:58:00,
2013-02-14 08:00:00,29.4,27.4,29.82,NW,316,7.0,18.0,92,0.00,,,0.00,Wunderground v.1.15,2013-02-14 14:00:00,
2013-02-14 08:06:00,29.5,27.5,29.82,NNW,334,7.0,18.0,92,0.00,,,0.00,Wunderground v.1.15,2013-02-14 14:06:00,
2013-02-14 08:07:00,29.5,27.5,29.82,NNW,348,7.0,18.0,92,0.00,,,0.00,Wunderground v.1.15,2013-02-14 14:07:00,
2013-02-14 08:09:00,29.6,27.6,29.82,NW,324,7.0,7.0,92,0.00,,,0.00,Wunderground v.1.15,2013-02-14 14:09:00,
2013-02-14 08:14:00,29.7,27.9,29.82,NW,322,6.0,18.0,93,0.00,,,0.00,Wunderground v.1.15,2013-02-14 14:14:00,
2013-02-14 08:16:00,29.8,28.0,29.82,WNW,301,6.0,18.0,93,0.00,,,0.00,Wunderground v.1.15,2013-02-14 14:16:00,
2013-02-14 08:18:00,29.8,27.8,29.82,NNW,328,6.0,18.0,92,0.00,,,0.00,Wunderground v.1.15,2013-02-14 14:18:00,
2013-02-14 08:22:00,29.9,28.1,29.83,NW,307,6.0,18.0,93,0.00,,,0.00,Wunderground v.1.15,2013-02-14 14:22:00,
2013-02-14 08:24:00,29.9,27.9,29.83,NW,305,7.0,18.0,92,0.00,,,0.00,Wunderground v.1.15,2013-02-14 14:24:00,
2013-02-14 08:26:00,30.0,28.0,29.83,NW,312,8.0,18.0,92,0.00,,,0.00,Wunderground v.1.15,2013-02-14 14:26:00,
2013-02-14 08:28:00,29.9,27.9,29.83,NW,321,8.0,18.0,92,0.00,,,0.00,Wunderground v.1.15,2013-02-14 14:28:00,
2013-02-14 08:29:00,29.9,27.9,29.83,NW,315,9.0,18.0,92,0.00,,,0.00,Wunderground v.1.15,2013-02-14 14:29:00,
2013-02-14 08:36:00,29.9,27.6,29.83,NW,321,9.0,18.0,91,0.00,,,0.00,Wunderground v.1.15,2013-02-14 14:36:00,
2013-02-14 08:38:00,29.9,27.9,29.83,NW,318,9.0,18.0,92,0.00,,,0.00,Wunderground v.1.15,2013-02-14 14:38:00,
2013-02-14 08:40:00,29.8,27.5,29.83,NW,304,9.0,9.0,91,0.00,,,0.00,Wunderground v.1.15,2013-02-14 14:40:00,
2013-02-14 08:44:00,29.8,27.8,29.84,WNW,296,8.0,18.0,92,0.00,,,0.00,Wunderground v.1.15,2013-02-14 14:44:00,
2013-02-14 08:46:00,29.9,27.9,29.83,WNW,297,8.0,18.0,92,0.00,,,0.00,Wunderground v.1.15,2013-02-14 14:46:00,
2013-02-14 08:51:00,29.9,27.9,29.83,WNW,293,7.0,18.0,92,0.00,,,0.00,Wunderground v.1.15,2013-02-14 14:51:00,
2013-02-14 08:53:00,30.0,28.0,29.83,WNW,287,7.0,18.0,92,0.00,,,0.00,Wunderground v.1.15,2013-02-14 14:53:00,
2013-02-14 08:58:00,30.0,28.0,29.84,WNW,297,6.0,18.0,92,0.00,,,0.00,Wunderground v.1.15,2013-02-14 14:58:00,
2013-02-14 09:00:00,30.0,28.0,29.84,WNW,294,6.0,18.0,92,0.00,,,0.00,Wunderground v.1.15,2013-02-14 15:00:00,
2013-02-14 09:04:00,29.8,27.5,29.83,WNW,297,6.0,18.0,91,0.00,,,0.00,Wunderground v.1.15,2013-02-14 15:04:00,
2013-02-14 09:08:00,29.9,27.9,29.83,West,281,6.0,18.0,92,0.00,,,0.00,Wunderground v.1.15,2013-02-14 15:08:00,
2013-02-14 09:10:00,29.9,27.9,29.83,WNW,297,6.0,6.0,92,0.00,,,0.00,Wunderground v.1.15,2013-02-14 15:10:00,
2013-02-14 09:13:00,29.9,27.9,29.83,WNW,290,5.0,18.0,92,0.00,,,0.00,Wunderground v.1.15,2013-02-14 15:13:00,
2013-02-14 09:15:00,29.9,27.9,29.83,West,262,5.0,18.0,92,0.00,,,0.00,Wunderground v.1.15,2013-02-14 15:15:00,
2013-02-14 09:20:00,30.0,28.0,29.83,West,273,4.0,18.0,92,0.00,,,0.00,Wunderground v.1.15,2013-02-14 15:20:00,
2013-02-14 09:22:00,30.0,28.0,29.84,West,264,4.0,18.0,92,0.00,,,0.00,Wunderground v.1.15,2013-02-14 15:22:00,
2013-02-14 09:28:00,30.6,28.6,29.84,West,274,6.0,18.0,92,0.00,,,0.00,Wunderground v.1.15,2013-02-14 15:28:00,
2013-02-14 09:30:00,30.6,28.6,29.85,SW,235,6.0,18.0,92,0.00,,,0.00,Wunderground v.1.15,2013-02-14 15:30:00,
2013-02-14 09:32:00,30.5,28.2,29.85,West,279,7.0,18.0,91,0.00,,,0.00,Wunderground v.1.15,2013-02-14 15:32:00,
2013-02-14 09:33:00,30.5,28.2,29.85,WNW,290,8.0,18.0,91,0.00,,,0.00,Wunderground v.1.15,2013-02-14 15:33:00,
2013-02-14 09:38:00,30.4,28.1,29.85,WNW,291,9.0,18.0,91,0.00,,,0.00,Wunderground v.1.15,2013-02-14 15:38:00,
2013-02-14 09:44:00,30.6,28.6,29.85,West,281,8.0,18.0,92,0.00,,,0.00,Wunderground v.1.15,2013-02-14 15:44:00,
2013-02-14 09:46:00,30.6,28.6,29.85,West,271,8.0,18.0,92,0.00,,,0.00,Wunderground v.1.15,2013-02-14 15:46:00,
2013-02-14 09:50:00,30.5,28.5,29.85,WNW,284,7.0,18.0,92,0.00,,,0.00,Wunderground v.1.15,2013-02-14 15:50:00,
2013-02-14 09:52:00,30.5,28.5,29.85,West,280,7.0,18.0,92,0.00,,,0.00,Wunderground v.1.15,2013-02-14 15:52:00,
2013-02-14 09:58:00,30.5,28.5,29.85,West,267,6.0,18.0,92,0.00,,,0.00,Wunderground v.1.15,2013-02-14 15:58:00,
2013-02-14 10:00:00,30.5,28.5,29.85,West,281,6.0,18.0,92,0.00,,,0.00,Wunderground v.1.15,2013-02-14 16:00:00,
2013-02-14 10:02:00,30.5,28.5,29.85,West,260,7.0,18.0,92,0.00,,,0.00,Wunderground v.1.15,2013-02-14 16:02:00,
2013-02-14 10:04:00,30.4,28.4,29.85,West,272,7.0,18.0,92,0.00,,,0.00,Wunderground v.1.15,2013-02-14 16:04:00,
2013-02-14 10:06:00,30.4,28.6,29.85,WSW,253,8.0,18.0,93,0.00,,,0.00,Wunderground v.1.15,2013-02-14 16:06:00,
2013-02-14 10:08:00,30.3,28.5,29.85,West,274,8.0,18.0,93,0.00,,,0.00,Wunderground v.1.15,2013-02-14 16:08:00,
2013-02-14 10:10:00,30.2,28.4,29.85,West,269,8.0,8.0,93,0.00,,,0.00,Wunderground v.1.15,2013-02-14 16:10:00,
2013-02-14 10:14:00,30.1,28.6,29.85,West,278,8.0,18.0,94,0.00,,,0.00,Wunderground v.1.15,2013-02-14 16:14:00,
2013-02-14 10:16:00,30.1,28.6,29.85,West,273,8.0,18.0,94,0.00,,,0.00,Wunderground v.1.15,2013-02-14 16:16:00,
2013-02-14 10:18:00,30.1,28.6,29.85,West,264,7.0,18.0,94,0.00,,,0.00,Wunderground v.1.15,2013-02-14 16:18:00,
2013-02-14 10:20:00,30.1,28.8,29.85,West,281,7.0,18.0,95,0.00,,,0.00,Wunderground v.1.15,2013-02-14 16:20:00,
2013-02-14 10:24:00,29.9,28.6,29.85,WSW,255,7.0,18.0,95,0.00,,,0.00,Wunderground v.1.15,2013-02-14 16:24:00,
2013-02-14 10:26:00,29.8,28.5,29.86,West,259,7.0,18.0,95,0.00,,,0.00,Wunderground v.1.15,2013-02-14 16:26:00,
2013-02-14 10:28:00,29.7,28.4,29.85,WSW,249,7.0,18.0,95,0.00,,,0.00,Wunderground v.1.15,2013-02-14 16:28:00,
2013-02-14 10:32:00,29.6,28.3,29.85,WSW,253,7.0,18.0,95,0.00,,,0.00,Wunderground v.1.15,2013-02-14 16:32:00,
2013-02-14 10:34:00,29.6,28.6,29.85,WSW,246,7.0,18.0,96,0.00,,,0.00,Wunderground v.1.15,2013-02-14 16:34:00,
2013-02-14 10:38:00,29.7,28.7,29.85,West,262,7.0,18.0,96,0.00,,,0.00,Wunderground v.1.15,2013-02-14 16:38:00,
2013-02-14 10:40:00,29.7,28.7,29.86,West,274,7.0,18.0,96,0.00,,,0.00,Wunderground v.1.15,2013-02-14 16:40:00,
2013-02-14 10:44:00,29.8,28.8,29.86,WSW,256,7.0,18.0,96,0.00,,,0.00,Wunderground v.1.15,2013-02-14 16:44:00,
2013-02-14 10:50:00,29.9,28.9,29.86,WSW,246,7.0,18.0,96,0.00,,,0.00,Wunderground v.1.15,2013-02-14 16:50:00,
2013-02-14 10:54:00,30.0,28.7,29.86,West,278,8.0,18.0,95,0.00,,,0.00,Wunderground v.1.15,2013-02-14 16:54:00,
2013-02-14 10:56:00,30.0,28.7,29.86,WSW,257,8.0,18.0,95,0.00,,,0.00,Wunderground v.1.15,2013-02-14 16:56:00,
2013-02-14 10:58:00,30.0,28.7,29.86,WSW,249,8.0,18.0,95,0.00,,,0.00,Wunderground v.1.15,2013-02-14 16:58:00,
2013-02-14 11:02:00,30.1,28.8,29.86,West,276,7.0,18.0,95,0.00,,,0.00,Wunderground v.1.15,2013-02-14 17:02:00,
2013-02-14 11:04:00,30.2,28.9,29.86,West,263,7.0,18.0,95,0.00,,,0.00,Wunderground v.1.15,2013-02-14 17:04:00,
2013-02-14 11:10:00,30.2,28.7,29.86,WSW,256,7.0,7.0,94,0.00,,,0.00,Wunderground v.1.15,2013-02-14 17:10:00,
2013-02-14 11:12:00,30.2,28.7,29.86,West,263,7.0,18.0,94,0.00,,,0.00,Wunderground v.1.15,2013-02-14 17:12:00,
2013-02-14 11:16:00,30.3,28.8,29.86,WSW,252,7.0,18.0,94,0.00,,,0.00,Wunderground v.1.15,2013-02-14 17:16:00,
2013-02-14 11:18:00,30.4,28.9,29.86,WNW,284,7.0,18.0,94,0.00,,,0.00,Wunderground v.1.15,2013-02-14 17:18:00,
2013-02-14 11:20:00,30.4,28.9,29.86,WNW,293,7.0,18.0,94,0.00,,,0.00,Wunderground v.1.15,2013-02-14 17:20:00,
2013-02-14 11:22:00,30.5,29.0,29.86,West,277,7.0,18.0,94,0.00,,,0.00,Wunderground v.1.15,2013-02-14 17:22:00,
2013-02-14 11:25:00,30.5,29.0,29.86,NW,316,7.0,18.0,94,0.00,,,0.00,Wunderground v.1.15,2013-02-14 17:25:00,
2013-02-14 11:30:00,30.6,29.1,29.86,WNW,285,7.0,18.0,94,0.00,,,0.00,Wunderground v.1.15,2013-02-14 17:30:00,
2013-02-14 11:32:00,30.6,28.8,29.86,WNW,290,7.0,18.0,93,0.00,,,0.00,Wunderground v.1.15,2013-02-14 17:32:00,
2013-02-14 11:36:00,30.7,28.9,29.86,West,276,7.0,18.0,93,0.00,,,0.00,Wunderground v.1.15,2013-02-14 17:36:00,
2013-02-14 11:38:00,30.7,28.9,29.86,WNW,285,7.0,18.0,93,0.00,,,0.00,Wunderground v.1.15,2013-02-14 17:38:00,
2013-02-14 11:40:00,30.7,28.9,29.86,WNW,286,8.0,18.0,93,0.00,,,0.00,Wunderground v.1.15,2013-02-14 17:40:00,
2013-02-14 11:44:00,30.7,28.9,29.86,WNW,286,7.0,18.0,93,0.00,,,0.00,Wunderground v.1.15,2013-02-14 17:44:00,
2013-02-14 11:46:00,30.8,29.0,29.86,West,281,7.0,18.0,93,0.00,,,0.00,Wunderground v.1.15,2013-02-14 17:46:00,
2013-02-14 11:52:00,30.8,29.0,29.86,WNW,295,7.0,18.0,93,0.00,,,0.00,Wunderground v.1.15,2013-02-14 17:52:00,
2013-02-14 11:54:00,30.9,29.1,29.86,WNW,297,6.0,18.0,93,0.00,,,0.00,Wunderground v.1.15,2013-02-14 17:54:00,
2013-02-14 11:56:00,30.9,29.1,29.86,WNW,294,6.0,18.0,93,0.00,,,0.00,Wunderground v.1.15,2013-02-14 17:56:00,
2013-02-14 12:00:00,30.9,29.1,29.86,WNW,295,6.0,18.0,93,0.00,,,0.00,Wunderground v.1.15,2013-02-14 18:00:00,
2013-02-14 12:04:00,31.0,29.2,29.86,WNW,290,6.0,18.0,93,0.00,,,0.00,Wunderground v.1.15,2013-02-14 18:04:00,
2013-02-14 12:06:00,31.0,29.5,29.86,WNW,289,6.0,18.0,94,0.00,,,0.00,Wunderground v.1.15,2013-02-14 18:06:00,
2013-02-14 12:07:00,31.0,29.5,29.86,WNW,300,6.0,18.0,94,0.00,,,0.00,Wunderground v.1.15,2013-02-14 18:07:00,
2013-02-14 12:09:00,31.0,29.5,29.86,NW,312,7.0,9.0,94,0.00,,,0.00,Wunderground v.1.15,2013-02-14 18:09:00,
2013-02-14 12:12:00,31.0,29.5,29.86,WNW,301,7.0,9.0,94,0.00,,,0.00,Wunderground v.1.15,2013-02-14 18:12:00,
2013-02-14 12:14:00,31.0,29.5,29.86,WNW,287,7.0,9.0,94,0.00,,,0.00,Wunderground v.1.15,2013-02-14 18:14:00,
2013-02-14 12:16:00,31.0,29.5,29.86,WNW,295,8.0,9.0,94,0.00,,,0.00,Wunderground v.1.15,2013-02-14 18:16:00,
2013-02-14 12:20:00,30.9,29.4,29.87,NW,322,8.0,8.0,94,0.00,,,0.00,Wunderground v.1.15,2013-02-14 18:20:00,
2013-02-14 12:24:00,30.9,29.4,29.87,NW,316,8.0,8.0,94,0.00,,,0.00,Wunderground v.1.15,2013-02-14 18:24:00,
2013-02-14 12:26:00,30.9,29.4,29.87,NW,309,8.0,9.0,94,0.00,,,0.00,Wunderground v.1.15,2013-02-14 18:26:00,
2013-02-14 12:29:00,30.8,29.3,29.87,NW,307,8.0,8.0,94,0.00,,,0.00,Wunderground v.1.15,2013-02-14 18:29:00,
2013-02-14 12:31:00,30.7,29.2,29.87,NNW,332,8.0,9.0,94,0.00,,,0.00,Wunderground v.1.15,2013-02-14 18:31:00,
2013-02-14 12:34:00,30.6,29.1,29.87,NNW,328,8.0,9.0,94,0.00,,,0.00,Wunderground v.1.15,2013-02-14 18:34:00,
2013-02-14 12:36:00,30.6,29.1,29.87,NNW,328,9.0,9.0,94,0.00,,,0.00,Wunderground v.1.15,2013-02-14 18:36:00,
2013-02-14 12:38:00,30.5,29.0,29.87,NNW,339,9.0,9.0,94,0.00,,,0.00,Wunderground v.1.15,2013-02-14 18:38:00,
2013-02-14 12:40:00,30.4,28.9,29.87,NNE,13,9.0,11.0,94,0.00,,,0.00,Wunderground v.1.15,2013-02-14 18:40:00,
2013-02-14 12:46:00,30.2,28.7,29.88,North,350,9.0,11.0,94,0.00,,,0.00,Wunderground v.1.15,2013-02-14 18:46:00,
2013-02-14 12:48:00,30.2,28.7,29.88,NW,322,9.0,11.0,94,0.00,,,0.00,Wunderground v.1.15,2013-02-14 18:48:00,
2013-02-14 12:51:00,30.1,28.6,29.88,NNW,329,8.0,11.0,94,0.00,,,0.00,Wunderground v.1.15,2013-02-14 18:51:00,
2013-02-14 12:56:00,30.0,28.7,29.88,North,11,9.0,11.0,95,0.00,,,0.00,Wunderground v.1.15,2013-02-14 18:56:00,
2013-02-14 13:00:00,29.7,28.4,29.88,NNE,13,10.0,14.0,95,0.00,,,0.00,Wunderground v.1.15,2013-02-14 19:00:00,
2013-02-14 13:04:00,29.5,28.2,29.88,North,4,10.0,14.0,95,0.00,,,0.00,Wunderground v.1.15,2013-02-14 19:04:00,
2013-02-14 13:06:00,29.4,28.1,29.88,North,352,10.0,14.0,95,0.00,,,0.00,Wunderground v.1.15,2013-02-14 19:06:00,
2013-02-14 13:11:00,29.0,27.7,29.88,NNE,27,10.0,11.0,95,0.00,,,0.00,Wunderground v.1.15,2013-02-14 19:11:00,
2013-02-14 13:13:00,29.1,27.8,29.89,NNW,346,10.0,12.0,95,0.00,,,0.00,Wunderground v.1.15,2013-02-14 19:13:00,
2013-02-14 13:16:00,29.1,27.8,29.89,NNW,334,10.0,12.0,95,0.00,,,0.00,Wunderground v.1.15,2013-02-14 19:16:00,
2013-02-14 13:20:00,28.9,27.6,29.89,North,9,10.0,10.0,95,0.00,,,0.00,Wunderground v.1.15,2013-02-14 19:20:00,
2013-02-14 13:22:00,29.0,27.7,29.89,North,8,10.0,13.0,95,0.00,,,0.00,Wunderground v.1.15,2013-02-14 19:22:00,
2013-02-14 13:24:00,29.0,27.7,29.89,NNW,330,10.0,13.0,95,0.00,,,0.00,Wunderground v.1.15,2013-02-14 19:24:00,
2013-02-14 13:26:00,29.0,27.7,29.89,North,359,10.0,13.0,95,0.00,,,0.00,Wunderground v.1.15,2013-02-14 19:26:00,
2013-02-14 13:28:00,29.0,28.0,29.89,NNE,13,10.0,13.0,96,0.00,,,0.00,Wunderground v.1.15,2013-02-14 19:28:00,
2013-02-14 13:32:00,29.1,27.8,29.89,NW,325,10.0,11.0,95,0.00,,,0.00,Wunderground v.1.15,2013-02-14 19:32:00,
2013-02-14 13:35:00,29.2,27.9,29.90,NW,326,9.0,11.0,95,0.00,,,0.00,Wunderground v.1.15,2013-02-14 19:35:00,
2013-02-14 13:40:00,29.2,27.9,29.90,North,352,9.0,16.0,95,0.00,,,0.00,Wunderground v.1.15,2013-02-14 19:40:00,
2013-02-14 13:42:00,29.1,27.8,29.90,NNE,18,10.0,16.0,95,0.00,,,0.00,Wunderground v.1.15,2013-02-14 19:42:00,
2013-02-14 13:48:00,28.9,27.6,29.90,NNE,18,12.0,16.0,95,0.00,,,0.00,Wunderground v.1.15,2013-02-14 19:48:00,
2013-02-14 13:50:00,28.9,27.6,29.90,North,356,12.0,17.0,95,0.00,,,0.00,Wunderground v.1.15,2013-02-14 19:50:00,
2013-02-14 13:55:00,29.1,27.8,29.91,North,359,12.0,17.0,95,0.00,,,0.00,Wunderground v.1.15,2013-02-14 19:55:00,
2013-02-14 13:57:00,29.2,27.7,29.91,North,9,12.0,17.0,94,0.00,,,0.00,Wunderground v.1.15,2013-02-14 19:57:00,
2013-02-14 14:04:00,29.0,27.2,29.91,NNW,333,12.0,12.0,93,0.00,,,0.00,Wunderground v.1.15,2013-02-14 20:04:00,
2013-02-14 14:10:00,29.1,27.1,29.92,NNW,347,11.0,11.0,92,0.00,,,0.00,Wunderground v.1.15,2013-02-14 20:10:00,
2013-02-14 14:14:00,29.1,27.1,29.92,NNW,334,10.0,11.0,92,0.00,,,0.00,Wunderground v.1.15,2013-02-14 20:14:00,
2013-02-14 14:15:00,29.1,27.1,29.92,North,11,9.0,11.0,92,0.00,,,0.00,Wunderground v.1.15,2013-02-14 20:15:00,
2013-02-14 14:22:00,29.0,27.0,29.92,North,356,10.0,14.0,92,0.00,,,0.00,Wunderground v.1.15,2013-02-14 20:22:00,
2013-02-14 14:26:00,29.0,27.0,29.93,North,352,11.0,14.0,92,0.00,,,0.00,Wunderground v.1.15,2013-02-14 20:26:00,
2013-02-14 14:28:00,28.9,26.6,29.93,NNW,344,12.0,14.0,91,0.00,,,0.00,Wunderground v.1.15,2013-02-14 20:28:00,
2013-02-14 14:34:00,28.9,26.9,29.93,NNE,18,11.0,12.0,92,0.00,,,0.00,Wunderground v.1.15,2013-02-14 20:34:00,
2013-02-14 14:38:00,28.9,26.9,29.93,NNW,330,10.0,12.0,92,0.00,,,0.00,Wunderground v.1.15,2013-02-14 20:38:00,
2013-02-14 14:40:00,28.9,26.9,29.94,NNW,335,10.0,10.0,92,0.00,,,0.00,Wunderground v.1.15,2013-02-14 20:40:00,
2013-02-14 14:45:00,28.8,26.8,29.94,NW,321,10.0,11.0,92,0.00,,,0.00,Wunderground v.1.15,2013-02-14 20:45:00,
2013-02-14 14:50:00,28.8,26.8,29.94,North,354,10.0,11.0,92,0.00,,,0.00,Wunderground v.1.15,2013-02-14 20:50:00,
2013-02-14 14:52:00,28.8,26.5,29.94,NNW,339,10.0,11.0,91,0.00,,,0.00,Wunderground v.1.15,2013-02-14 20:52:00,
2013-02-14 14:54:00,28.8,26.8,29.94,NNW,335,10.0,11.0,92,0.00,,,0.00,Wunderground v.1.15,2013-02-14 20:54:00,
2013-02-14 14:58:00,28.8,26.2,29.95,NNW,335,10.0,11.0,90,0.00,,,0.00,Wunderground v.1.15,2013-02-14 20:58:00,
2013-02-14 15:00:00,28.7,26.1,29.95,NNW,346,11.0,12.0,90,0.00,,,0.00,Wunderground v.1.15,2013-02-14 21:00:00,
2013-02-14 15:04:00,28.7,26.1,29.95,North,352,11.0,12.0,90,0.00,,,0.00,Wunderground v.1.15,2013-02-14 21:04:00,
2013-02-14 15:09:00,28.7,25.6,29.95,North,356,11.0,11.0,88,0.00,,,0.00,Wunderground v.1.15,2013-02-14 21:09:00,
2013-02-14 15:12:00,28.8,25.4,29.95,NNW,330,11.0,11.0,87,0.00,,,0.00,Wunderground v.1.15,2013-02-14 21:12:00,
2013-02-14 15:16:00,28.7,25.3,29.96,NW,316,12.0,12.0,87,0.00,,,0.00,Wunderground v.1.15,2013-02-14 21:16:00,
2013-02-14 15:20:00,28.6,25.5,29.96,NW,317,11.0,12.0,88,0.00,,,0.00,Wunderground v.1.15,2013-02-14 21:20:00,
2013-02-14 15:24:00,28.5,25.1,29.96,NW,311,12.0,12.0,87,0.00,,,0.00,Wunderground v.1.15,2013-02-14 21:24:00,
2013-02-14 15:28:00,28.8,25.7,29.96,North,1,11.0,12.0,88,0.00,,,0.00,Wunderground v.1.15,2013-02-14 21:28:00,
2013-02-14 15:29:00,28.9,25.5,29.96,North,11,12.0,12.0,87,0.00,,,0.00,Wunderground v.1.15,2013-02-14 21:29:00,
2013-02-14 15:34:00,29.0,25.6,29.96,NW,326,12.0,12.0,87,0.00,,,0.00,Wunderground v.1.15,2013-02-14 21:34:00,
2013-02-14 15:38:00,29.4,26.0,29.97,NNW,335,12.0,13.0,87,0.00,,,0.00,Wunderground v.1.15,2013-02-14 21:38:00,
2013-02-14 15:40:00,29.5,25.5,29.97,NNW,344,12.0,16.0,85,0.00,,,0.00,Wunderground v.1.15,2013-02-14 21:40:00,
2013-02-14 15:44:00,29.3,25.4,29.97,NW,316,12.0,16.0,85,0.00,,,0.00,Wunderground v.1.15,2013-02-14 21:44:00,
2013-02-14 15:46:00,29.3,25.4,29.97,NNW,342,13.0,16.0,85,0.00,,,0.00,Wunderground v.1.15,2013-02-14 21:46:00,
2013-02-14 15:51:00,28.8,24.9,29.98,NNE,15,14.0,14.0,85,0.00,,,0.00,Wunderground v.1.15,2013-02-14 21:51:00,
2013-02-14 15:53:00,28.7,25.0,29.98,North,5,14.0,14.0,86,0.00,,,0.00,Wunderground v.1.15,2013-02-14 21:53:00,
2013-02-14 15:58:00,28.4,24.5,29.98,NNW,330,14.0,14.0,85,0.00,,,0.00,Wunderground v.1.15,2013-02-14 21:58:00,
2013-02-14 16:04:00,28.0,24.4,29.99,North,349,13.0,14.0,86,0.00,,,0.00,Wunderground v.1.15,2013-02-14 22:04:00,
2013-02-14 16:06:00,27.8,24.2,29.99,NNW,344,12.0,14.0,86,0.00,,,0.00,Wunderground v.1.15,2013-02-14 22:06:00,
2013-02-14 16:11:00,27.6,24.2,29.99,NNW,335,11.0,13.0,87,0.00,,,0.00,Wunderground v.1.15,2013-02-14 22:11:00,
2013-02-14 16:13:00,27.6,24.2,29.99,NNW,333,11.0,13.0,87,0.00,,,0.00,Wunderground v.1.15,2013-02-14 22:13:00,
2013-02-14 16:20:00,27.1,23.7,30.00,NW,320,12.0,13.0,87,0.00,,,0.00,Wunderground v.1.15,2013-02-14 22:20:00,
2013-02-14 16:22:00,27.1,23.7,30.00,NNW,333,13.0,15.0,87,0.00,,,0.00,Wunderground v.1.15,2013-02-14 22:22:00,
2013-02-14 16:28:00,26.8,23.2,30.00,North,350,14.0,17.0,86,0.00,,,0.00,Wunderground v.1.15,2013-02-14 22:28:00,
2013-02-14 16:30:00,26.7,23.4,30.01,NNW,335,14.0,14.0,87,0.00,,,0.00,Wunderground v.1.15,2013-02-14 22:30:00,
2013-02-14 16:35:00,26.6,23.5,30.01,North,354,11.0,14.0,88,0.00,,,0.00,Wunderground v.1.15,2013-02-14 22:35:00,
2013-02-14 16:40:00,26.4,22.8,30.02,NW,321,11.0,12.0,86,0.00,,,0.00,Wunderground v.1.15,2013-02-14 22:40:00,
2013-02-14 16:44:00,26.1,21.9,30.02,NNW,332,12.0,16.0,84,0.00,,,0.00,Wunderground v.1.15,2013-02-14 22:44:00,
2013-02-14 16:46:00,26.0,22.1,30.02,NW,316,12.0,16.0,85,0.00,,,0.00,Wunderground v.1.15,2013-02-14 22:46:00,
2013-02-14 16:50:00,25.6,21.2,30.02,NNW,332,12.0,12.0,83,0.00,,,0.00,Wunderground v.1.15,2013-02-14 22:50:00,
2013-02-14 16:52:00,25.5,20.8,30.02,NNW,339,12.0,12.0,82,0.00,,,0.00,Wunderground v.1.15,2013-02-14 22:52:00,
2013-02-14 16:55:00,25.4,21.2,30.03,NNW,332,11.0,12.0,84,0.00,,,0.00,Wunderground v.1.15,2013-02-14 22:55:00,
2013-02-14 17:00:00,25.1,20.7,30.03,NNW,342,12.0,12.0,83,0.00,,,0.00,Wunderground v.1.15,2013-02-14 23:00:00,
2013-02-14 17:04:00,25.0,20.6,30.04,North,350,12.0,13.0,83,0.00,,,0.00,Wunderground v.1.15,2013-02-14 23:04:00,
2013-02-14 17:06:00,24.8,20.4,30.04,NNW,335,12.0,13.0,83,0.00,,,0.00,Wunderground v.1.15,2013-02-14 23:06:00,
2013-02-14 17:12:00,24.4,20.0,30.04,NW,319,11.0,13.0,83,0.00,,,0.00,Wunderground v.1.15,2013-02-14 23:12:00,
2013-02-14 17:14:00,24.2,19.8,30.05,NNW,332,11.0,16.0,83,0.00,,,0.00,Wunderground v.1.15,2013-02-14 23:14:00,
2013-02-14 17:20:00,23.9,19.5,30.05,NNW,337,12.0,12.0,83,0.00,,,0.00,Wunderground v.1.15,2013-02-14 23:20:00,
2013-02-14 17:22:00,23.9,19.5,30.05,NNW,333,12.0,12.0,83,0.00,,,0.00,Wunderground v.1.15,2013-02-14 23:22:00,
2013-02-14 17:28:00,23.6,19.2,30.05,NW,321,12.0,14.0,83,0.00,,,0.00,Wunderground v.1.15,2013-02-14 23:28:00,
2013-02-14 17:34:00,23.2,18.8,30.06,NNW,333,12.0,14.0,83,0.00,,,0.00,Wunderground v.1.15,2013-02-14 23:34:00,
2013-02-14 17:36:00,23.1,18.7,30.06,NNW,339,12.0,14.0,83,0.00,,,0.00,Wunderground v.1.15,2013-02-14 23:36:00,
2013-02-14 17:39:00,22.9,18.5,30.06,NNW,339,12.0,12.0,83,0.00,,,0.00,Wunderground v.1.15,2013-02-14 23:39:00,
2013-02-14 17:46:00,22.4,17.7,30.06,NNW,334,13.0,16.0,82,0.00,,,0.00,Wunderground v.1.15,2013-02-14 23:46:00,
2013-02-14 17:48:00,22.3,17.6,30.06,NNW,339,13.0,16.0,82,0.00,,,0.00,Wunderground v.1.15,2013-02-14 23:48:00,
2013-02-14 17:52:00,22.1,17.4,30.07,North,6,14.0,15.0,82,0.00,,,0.00,Wunderground v.1.15,2013-02-14 23:52:00,
2013-02-14 17:55:00,21.9,17.5,30.07,North,352,14.0,15.0,83,0.00,,,0.00,Wunderground v.1.15,2013-02-14 23:55:00,
2013-02-14 17:57:00,21.8,17.4,30.07,North,354,14.0,15.0,83,0.00,,,0.00,Wunderground v.1.15,2013-02-14 23:57:00,
2013-02-14 18:00:00,21.8,17.4,30.07,NW,312,13.0,13.0,83,0.00,,,0.00,Wunderground v.1.15,2013-02-15 00:00:00,
2013-02-14 18:06:00,21.4,17.3,30.08,NNW,345,13.0,13.0,84,0.00,,,0.00,Wunderground v.1.15,2013-02-15 00:06:00,
2013-02-14 18:08:00,21.3,17.2,30.08,NNW,342,12.0,13.0,84,0.00,,,0.00,Wunderground v.1.15,2013-02-15 00:08:00,
2013-02-14 18:12:00,21.0,16.9,30.08,NW,318,12.0,12.0,84,0.00,,,0.00,Wunderground v.1.15,2013-02-15 00:12:00,
2013-02-14 18:14:00,20.8,16.7,30.08,North,355,12.0,15.0,84,0.00,,,0.00,Wunderground v.1.15,2013-02-15 00:14:00,
2013-02-14 18:18:00,20.5,16.2,30.09,NNW,338,13.0,15.0,83,0.00,,,0.00,Wunderground v.1.15,2013-02-15 00:18:00,
2013-02-14 18:20:00,20.4,16.1,30.09,NNW,342,12.0,12.0,83,0.00,,,0.00,Wunderground v.1.15,2013-02-15 00:20:00,
2013-02-14 18:22:00,20.3,16.0,30.09,NNW,338,12.0,12.0,83,0.00,,,0.00,Wunderground v.1.15,2013-02-15 00:22:00,
2013-02-14 18:24:00,20.2,15.9,30.09,NW,323,13.0,15.0,83,0.00,,,0.00,Wunderground v.1.15,2013-02-15 00:24:00,
2013-02-14 18:30:00,20.0,15.7,30.09,NNW,336,12.0,12.0,83,0.00,,,0.00,Wunderground v.1.15,2013-02-15 00:30:00,
2013-02-14 18:32:00,20.0,15.7,30.10,NW,322,12.0,12.0,83,0.00,,,0.00,Wunderground v.1.15,2013-02-15 00:32:00,
2013-02-14 18:34:00,19.9,15.6,30.10,NNW,332,11.0,12.0,83,0.00,,,0.00,Wunderground v.1.15,2013-02-15 00:34:00,
2013-02-14 18:36:00,19.8,15.5,30.10,NNW,327,10.0,12.0,83,0.00,,,0.00,Wunderground v.1.15,2013-02-15 00:36:00,
2013-02-14 18:38:00,19.7,15.4,30.10,NNW,332,10.0,12.0,83,0.00,,,0.00,Wunderground v.1.15,2013-02-15 00:38:00,
2013-02-14 18:42:00,19.5,14.9,30.10,NW,323,11.0,13.0,82,0.00,,,0.00,Wunderground v.1.15,2013-02-15 00:42:00,
2013-02-14 18:44:00,19.4,14.8,30.10,NNW,345,11.0,13.0,82,0.00,,,0.00,Wunderground v.1.15,2013-02-15 00:44:00,
2013-02-14 18:48:00,19.3,15.0,30.11,NW,325,12.0,13.0,83,0.00,,,0.00,Wunderground v.1.15,2013-02-15 00:48:00,
2013-02-14 18:50:00,19.1,14.8,30.11,NW,313,11.0,11.0,83,0.00,,,0.00,Wunderground v.1.15,2013-02-15 00:50:00,
2013-02-14 18:52:00,19.1,14.8,30.11,NNW,342,11.0,12.0,83,0.00,,,0.00,Wunderground v.1.15,2013-02-15 00:52:00,
2013-02-14 18:54:00,19.0,14.4,30.11,North,350,12.0,12.0,82,0.00,,,0.00,Wunderground v.1.15,2013-02-15 00:54:00,
2013-02-14 18:56:00,19.0,14.4,30.11,NW,321,12.0,12.0,82,0.00,,,0.00,Wunderground v.1.15,2013-02-15 00:56:00,
2013-02-14 18:58:00,19.0,14.4,30.11,North,350,12.0,12.0,82,0.00,,,0.00,Wunderground v.1.15,2013-02-15 00:58:00,
2013-02-14 19:04:00,18.8,14.8,30.11,North,357,11.0,12.0,84,0.00,,,0.00,Wunderground v.1.15,2013-02-15 01:04:00,
2013-02-14 19:06:00,18.7,14.7,30.11,NW,324,11.0,12.0,84,0.00,,,0.00,Wunderground v.1.15,2013-02-15 01:06:00,
2013-02-14 19:08:00,18.6,14.3,30.12,North,8,11.0,17.0,83,0.00,,,0.00,Wunderground v.1.15,2013-02-15 01:08:00,
2013-02-14 19:10:00,18.6,14.3,30.12,NNE,20,11.0,13.0,83,0.00,,,0.00,Wunderground v.1.15,2013-02-15 01:10:00,
2013-02-14 19:16:00,18.5,13.9,30.12,North,357,13.0,14.0,82,0.00,,,0.00,Wunderground v.1.15,2013-02-15 01:16:00,
2013-02-14 19:18:00,18.4,13.8,30.12,NW,323,12.0,14.0,82,0.00,,,0.00,Wunderground v.1.15,2013-02-15 01:18:00,
2013-02-14 19:20:00,18.3,14.0,30.13,NNW,329,12.0,12.0,83,0.00,,,0.00,Wunderground v.1.15,2013-02-15 01:20:00,
2013-02-14 19:22:00,18.3,14.0,30.12,NW,324,11.0,12.0,83,0.00,,,0.00,Wunderground v.1.15,2013-02-15 01:22:00,
2013-02-14 19:26:00,18.1,14.1,30.12,North,350,10.0,12.0,84,0.00,,,0.00,Wunderground v.1.15,2013-02-15 01:26:00,
2013-02-14 19:28:00,18.1,14.1,30.13,NW,321,10.0,12.0,84,0.00,,,0.00,Wunderground v.1.15,2013-02-15 01:28:00,
2013-02-14 19:30:00,18.1,13.8,30.12,NNW,345,11.0,11.0,83,0.00,,,0.00,Wunderground v.1.15,2013-02-15 01:30:00,
2013-02-14 19:32:00,18.0,13.7,30.13,NNW,336,11.0,12.0,83,0.00,,,0.00,Wunderground v.1.15,2013-02-15 01:32:00,
2013-02-14 19:34:00,18.0,13.7,30.13,NNW,333,11.0,12.0,83,0.00,,,0.00,Wunderground v.1.15,2013-02-15 01:34:00,
2013-02-14 19:38:00,18.0,13.4,30.13,NW,325,12.0,17.0,82,0.00,,,0.00,Wunderground v.1.15,2013-02-15 01:38:00,
2013-02-14 19:40:00,18.0,13.4,30.13,North,352,12.0,13.0,82,0.00,,,0.00,Wunderground v.1.15,2013-02-15 01:40:00,
2013-02-14 19:42:00,18.0,13.7,30.13,NW,318,11.0,13.0,83,0.00,,,0.00,Wunderground v.1.15,2013-02-15 01:42:00,
2013-02-14 19:48:00,17.9,13.6,30.13,North,354,12.0,13.0,83,0.00,,,0.00,Wunderground v.1.15,2013-02-15 01:48:00,
2013-02-14 19:50:00,17.9,13.6,30.13,NNW,345,11.0,11.0,83,0.00,,,0.00,Wunderground v.1.15,2013-02-15 01:50:00,
2013-02-14 19:52:00,17.9,13.6,30.14,NNW,334,11.0,13.0,83,0.00,,,0.00,Wunderground v.1.15,2013-02-15 01:52:00,
2013-02-14 19:56:00,17.8,13.2,30.14,NNW,334,11.0,13.0,82,0.00,,,0.00,Wunderground v.1.15,2013-02-15 01:56:00,
2013-02-14 20:00:00,17.8,13.0,30.14,NNW,347,12.0,13.0,81,0.00,,,0.00,Wunderground v.1.15,2013-02-15 02:00:00,
2013-02-14 20:02:00,17.8,13.0,30.14,North,349,12.0,13.0,81,0.00,,,0.00,Wunderground v.1.15,2013-02-15 02:02:00,
2013-02-14 20:04:00,17.8,13.0,30.14,North,360,13.0,16.0,81,0.00,,,0.00,Wunderground v.1.15,2013-02-15 02:04:00,
2013-02-14 20:06:00,17.8,13.2,30.14,North,349,12.0,16.0,82,0.00,,,0.00,Wunderground v.1.15,2013-02-15 02:06:00,
2013-02-14 20:08:00,17.7,13.1,30.14,NNE,18,12.0,16.0,82,0.00,,,0.00,Wunderground v.1.15,2013-02-15 02:08:00,
2013-02-14 20:10:00,17.7,13.1,30.14,North,349,11.0,16.0,82,0.00,,,0.00,Wunderground v.1.15,2013-02-15 02:10:00,
2013-02-14 20:14:00,17.6,13.0,30.14,NNW,336,11.0,16.0,82,0.00,,,0.00,Wunderground v.1.15,2013-02-15 02:14:00,
2013-02-14 20:16:00,17.6,13.0,30.14,North,349,11.0,16.0,82,0.00,,,0.00,Wunderground v.1.15,2013-02-15 02:16:00,
2013-02-14 20:20:00,17.4,12.6,30.14,NNE,20,13.0,14.0,81,0.00,,,0.00,Wunderground v.1.15,2013-02-15 02:20:00,
2013-02-14 20:22:00,17.3,12.5,30.14,NNW,347,13.0,14.0,81,0.00,,,0.00,Wunderground v.1.15,2013-02-15 02:22:00,
2013-02-14 20:24:00,17.2,12.1,30.15,NNW,340,13.0,14.0,80,0.00,,,0.00,Wunderground v.1.15,2013-02-15 02:24:00,
2013-02-14 20:28:00,17.0,12.2,30.15,NNW,347,12.0,14.0,81,0.00,,,0.00,Wunderground v.1.15,2013-02-15 02:28:00,
2013-02-14 20:30:00,16.9,12.4,30.15,NNW,347,11.0,13.0,82,0.00,,,0.00,Wunderground v.1.15,2013-02-15 02:30:00,
2013-02-14 20:34:00,16.8,12.3,30.15,WNW,293,10.0,13.0,82,0.00,,,0.00,Wunderground v.1.15,2013-02-15 02:34:00,
2013-02-14 20:36:00,16.7,11.9,30.15,North,350,11.0,13.0,81,0.00,,,0.00,Wunderground v.1.15,2013-02-15 02:36:00,
2013-02-14 20:38:00,16.5,11.4,30.15,North,359,11.0,23.0,80,0.00,,,0.00,Wunderground v.1.15,2013-02-15 02:38:00,
2013-02-14 20:44:00,16.1,10.7,30.16,North,360,14.0,16.0,79,0.00,,,0.00,Wunderground v.1.15,2013-02-15 02:44:00,
2013-02-14 20:46:00,16.0,10.6,30.16,NNE,15,15.0,16.0,79,0.00,,,0.00,Wunderground v.1.15,2013-02-15 02:46:00,
2013-02-14 20:48:00,16.0,10.9,30.16,NNW,336,14.0,16.0,80,0.00,,,0.00,Wunderground v.1.15,2013-02-15 02:48:00,
2013-02-14 20:52:00,15.8,11.0,30.16,NW,321,12.0,13.0,81,0.00,,,0.00,Wunderground v.1.15,2013-02-15 02:52:00,
2013-02-14 20:54:00,15.8,11.0,30.16,NNW,333,11.0,13.0,81,0.00,,,0.00,Wunderground v.1.15,2013-02-15 02:54:00,
2013-02-14 20:56:00,15.7,10.9,30.16,NNW,347,10.0,13.0,81,0.00,,,0.00,Wunderground v.1.15,2013-02-15 02:56:00,
2013-02-14 20:58:00,15.6,10.8,30.17,NNW,340,10.0,13.0,81,0.00,,,0.00,Wunderground v.1.15,2013-02-15 02:58:00,
2013-02-14 21:00:00,15.6,10.8,30.17,NNW,330,10.0,10.0,81,0.00,,,0.00,Wunderground v.1.15,2013-02-15 03:00:00,
2013-02-14 21:04:00,15.5,10.7,30.17,NNW,333,10.0,11.0,81,0.00,,,0.00,Wunderground v.1.15,2013-02-15 03:04:00,
2013-02-14 21:08:00,15.5,10.7,30.17,NNW,340,10.0,11.0,81,0.00,,,0.00,Wunderground v.1.15,2013-02-15 03:08:00,
2013-02-14 21:12:00,15.4,10.6,30.17,North,359,10.0,11.0,81,0.00,,,0.00,Wunderground v.1.15,2013-02-15 03:12:00,
2013-02-14 21:14:00,15.4,10.6,30.18,NNW,342,10.0,16.0,81,0.00,,,0.00,Wunderground v.1.15,2013-02-15 03:14:00,
2013-02-14 21:18:00,15.3,10.2,30.18,North,6,11.0,16.0,80,0.00,,,0.00,Wunderground v.1.15,2013-02-15 03:18:00,
2013-02-14 21:20:00,15.3,10.2,30.18,NW,322,11.0,12.0,80,0.00,,,0.00,Wunderground v.1.15,2013-02-15 03:20:00,
2013-02-14 21:24:00,15.2,10.1,30.18,NNW,340,11.0,12.0,80,0.00,,,0.00,Wunderground v.1.15,2013-02-15 03:24:00,
2013-02-14 21:28:00,15.0,10.2,30.18,NNW,342,9.0,12.0,81,0.00,,,0.00,Wunderground v.1.15,2013-02-15 03:28:00,
2013-02-14 21:32:00,14.8,10.0,30.18,NNW,347,9.0,11.0,81,0.00,,,0.00,Wunderground v.1.15,2013-02-15 03:32:00,
2013-02-14 21:34:00,14.8,10.0,30.18,NNW,336,9.0,11.0,81,0.00,,,0.00,Wunderground v.1.15,2013-02-15 03:34:00,
2013-02-14 21:36:00,14.7,9.6,30.19,NNW,333,9.0,11.0,80,0.00,,,0.00,Wunderground v.1.15,2013-02-15 03:36:00,
2013-02-14 21:42:00,14.5,9.2,30.19,NNW,335,10.0,12.0,79,0.00,,,0.00,Wunderground v.1.15,2013-02-15 03:42:00,
2013-02-14 21:48:00,14.4,9.1,30.18,NNW,347,11.0,13.0,79,0.00,,,0.00,Wunderground v.1.15,2013-02-15 03:48:00,
2013-02-14 21:54:00,14.3,9.0,30.19,NNE,15,11.0,13.0,79,0.00,,,0.00,Wunderground v.1.15,2013-02-15 03:54:00,
2013-02-14 21:56:00,14.3,9.0,30.19,NW,321,11.0,13.0,79,0.00,,,0.00,Wunderground v.1.15,2013-02-15 03:56:00,
2013-02-14 22:00:00,14.3,9.0,30.19,North,352,10.0,11.0,79,0.00,,,0.00,Wunderground v.1.15,2013-02-15 04:00:00,
2013-02-14 22:02:00,14.3,9.0,30.19,North,350,11.0,11.0,79,0.00,,,0.00,Wunderground v.1.15,2013-02-15 04:02:00,
2013-02-14 22:06:00,14.1,8.8,30.19,North,11,9.0,11.0,79,0.00,,,0.00,Wunderground v.1.15,2013-02-15 04:06:00,
2013-02-14 22:08:00,14.2,8.9,30.19,North,352,9.0,20.0,79,0.00,,,0.00,Wunderground v.1.15,2013-02-15 04:08:00,
2013-02-14 22:12:00,14.2,8.6,30.19,North,354,11.0,17.0,78,0.00,,,0.00,Wunderground v.1.15,2013-02-15 04:12:00,
2013-02-14 22:17:00,14.1,8.8,30.19,NNW,334,11.0,17.0,79,0.00,,,0.00,Wunderground v.1.15,2013-02-15 04:17:00,
2013-02-14 22:20:00,14.1,8.8,30.19,NNW,334,10.0,10.0,79,0.00,,,0.00,Wunderground v.1.15,2013-02-15 04:20:00,
2013-02-14 22:26:00,13.9,8.3,30.19,NNW,345,9.0,14.0,78,0.00,,,0.00,Wunderground v.1.15,2013-02-15 04:26:00,
2013-02-14 22:30:00,13.8,8.5,30.19,North,11,10.0,14.0,79,0.00,,,0.00,Wunderground v.1.15,2013-02-15 04:30:00,
2013-02-14 22:32:00,13.8,8.5,30.19,North,6,11.0,14.0,79,0.00,,,0.00,Wunderground v.1.15,2013-02-15 04:32:00,
2013-02-14 22:34:00,13.7,8.4,30.19,North,354,10.0,14.0,79,0.00,,,0.00,Wunderground v.1.15,2013-02-15 04:34:00,
2013-02-14 22:36:00,13.6,8.3,30.19,NNW,342,10.0,14.0,79,0.00,,,0.00,Wunderground v.1.15,2013-02-15 04:36:00,
2013-02-14 22:38:00,13.6,8.0,30.19,North,359,10.0,15.0,78,0.00,,,0.00,Wunderground v.1.15,2013-02-15 04:38:00,
2013-02-14 22:41:00,13.5,7.9,30.19,NNW,342,10.0,14.0,78,0.00,,,0.00,Wunderground v.1.15,2013-02-15 04:41:00,
2013-02-14 22:46:00,13.5,7.9,30.19,NNW,332,11.0,14.0,78,0.00,,,0.00,Wunderground v.1.15,2013-02-15 04:46:00,
2013-02-14 22:48:00,13.4,7.8,30.20,North,1,10.0,14.0,78,0.00,,,0.00,Wunderground v.1.15,2013-02-15 04:48:00,
2013-02-14 22:54:00,13.2,7.6,30.20,North,5,9.0,13.0,78,0.00,,,0.00,Wunderground v.1.15,2013-02-15 04:54:00,
2013-02-14 22:58:00,13.1,7.5,30.20,North,359,9.0,13.0,78,0.00,,,0.00,Wunderground v.1.15,2013-02-15 04:58:00,
2013-02-14 23:00:00,13.0,7.4,30.20,North,354,9.0,9.0,78,0.00,,,0.00,Wunderground v.1.15,2013-02-15 05:00:00,
2013-02-14 23:02:00,13.0,7.4,30.20,NW,312,8.0,11.0,78,0.00,,,0.00,Wunderground v.1.15,2013-02-15 05:02:00,
2013-02-14 23:06:00,12.9,7.3,30.20,NNW,329,8.0,11.0,78,0.00,,,0.00,Wunderground v.1.15,2013-02-15 05:06:00,
2013-02-14 23:08:00,12.9,7.3,30.20,NW,313,8.0,11.0,78,0.00,,,0.00,Wunderground v.1.15,2013-02-15 05:08:00,
2013-02-14 23:12:00,12.8,7.2,30.21,NNW,334,8.0,11.0,78,0.00,,,0.00,Wunderground v.1.15,2013-02-15 05:12:00,
2013-02-14 23:15:00,12.7,7.1,30.21,NNW,329,8.0,11.0,78,0.00,,,0.00,Wunderground v.1.15,2013-02-15 05:15:00,
2013-02-14 23:17:00,12.6,7.3,30.21,NNW,344,7.0,11.0,79,0.00,,,0.00,Wunderground v.1.15,2013-02-15 05:17:00,
2013-02-14 23:20:00,12.5,7.2,30.21,NNW,333,7.0,7.0,79,0.00,,,0.00,Wunderground v.1.15,2013-02-15 05:20:00,
2013-02-14 23:26:00,12.6,7.0,30.21,NW,318,7.0,11.0,78,0.00,,,0.00,Wunderground v.1.15,2013-02-15 05:26:00,
2013-02-14 23:30:00,12.7,7.1,30.21,NNW,333,7.0,7.0,78,0.00,,,0.00,Wunderground v.1.15,2013-02-15 05:30:00,
2013-02-14 23:36:00,12.6,7.0,30.21,NNW,334,7.0,11.0,78,0.00,,,0.00,Wunderground v.1.15,2013-02-15 05:36:00,
2013-02-14 23:38:00,12.6,7.0,30.21,NNW,337,7.0,11.0,78,0.00,,,0.00,Wunderground v.1.15,2013-02-15 05:38:00,
2013-02-14 23:42:00,12.5,6.9,30.22,NW,321,7.0,11.0,78,0.00,,,0.00,Wunderground v.1.15,2013-02-15 05:42:00,
2013-02-14 23:47:00,12.4,6.8,30.22,NW,323,7.0,11.0,78,0.00,,,0.00,Wunderground v.1.15,2013-02-15 05:47:00,
2013-02-14 23:50:00,12.4,6.8,30.22,NW,322,7.0,7.0,78,0.00,,,0.00,Wunderground v.1.15,2013-02-15 05:50:00,
2013-02-14 23:54:00,12.3,6.7,30.22,NW,314,6.0,11.0,78,0.00,,,0.00,Wunderground v.1.15,2013-02-15 05:54:00,